sensor_id;sensor_type;location;lat;lon;timestamp;P1;durP1;ratioP1;P2;durP2;ratioP2
10945;SDS011;5525;42.648;23.368;2023-03-24T00:00:20;18.83;;;12.82;;
10945;SDS011;5525;42.648;23.368;2023-03-24T00:02:48;18.35;;;12.98;;
10945;SDS011;5525;42.648;23.368;2023-03-24T00:05:17;18.08;;;12.50;;
10945;SDS011;5525;42.648;23.368;2023-03-24T00:07:46;18.65;;;13.15;;
10945;SDS011;5525;42.648;23.368;2023-03-24T00:10:13;19.13;;;13.60;;
10945;SDS011;5525;42.648;23.368;2023-03-24T00:12:42;20.77;;;15.02;;
10945;SDS011;5525;42.648;23.368;2023-03-24T00:15:10;20.55;;;14.43;;
10945;SDS011;5525;42.648;23.368;2023-03-24T00:17:39;20.45;;;14.02;;
10945;SDS011;5525;42.648;23.368;2023-03-24T00:20:07;20.02;;;14.77;;
10945;SDS011;5525;42.648;23.368;2023-03-24T00:22:40;17.23;;;13.15;;
10945;SDS011;5525;42.648;23.368;2023-03-24T00:25:14;21.02;;;13.55;;
10945;SDS011;5525;42.648;23.368;2023-03-24T00:27:41;21.77;;;15.18;;
10945;SDS011;5525;42.648;23.368;2023-03-24T00:30:09;21.23;;;15.10;;
10945;SDS011;5525;42.648;23.368;2023-03-24T00:32:37;19.23;;;12.90;;
10945;SDS011;5525;42.648;23.368;2023-03-24T00:35:04;17.50;;;13.52;;
10945;SDS011;5525;42.648;23.368;2023-03-24T00:37:33;18.35;;;13.25;;
10945;SDS011;5525;42.648;23.368;2023-03-24T00:40:03;21.63;;;13.40;;
10945;SDS011;5525;42.648;23.368;2023-03-24T00:42:32;20.17;;;13.48;;
10945;SDS011;5525;42.648;23.368;2023-03-24T00:45:01;20.55;;;13.73;;
10945;SDS011;5525;42.648;23.368;2023-03-24T00:47:29;19.13;;;13.55;;
10945;SDS011;5525;42.648;23.368;2023-03-24T00:50:00;18.60;;;13.20;;
10945;SDS011;5525;42.648;23.368;2023-03-24T00:52:28;18.90;;;13.10;;
10945;SDS011;5525;42.648;23.368;2023-03-24T00:54:58;18.98;;;14.00;;
10945;SDS011;5525;42.648;23.368;2023-03-24T00:57:27;20.98;;;13.82;;
10945;SDS011;5525;42.648;23.368;2023-03-24T00:59:59;21.70;;;14.10;;
10945;SDS011;5525;42.648;23.368;2023-03-24T01:02:33;16.15;;;12.73;;
10945;SDS011;5525;42.648;23.368;2023-03-24T01:05:00;19.35;;;13.48;;
10945;SDS011;5525;42.648;23.368;2023-03-24T01:07:28;17.38;;;12.65;;
10945;SDS011;5525;42.648;23.368;2023-03-24T01:09:55;17.58;;;13.57;;
10945;SDS011;5525;42.648;23.368;2023-03-24T01:12:22;16.80;;;12.20;;
10945;SDS011;5525;42.648;23.368;2023-03-24T01:14:51;17.92;;;11.73;;
10945;SDS011;5525;42.648;23.368;2023-03-24T01:17:18;17.17;;;12.13;;
10945;SDS011;5525;42.648;23.368;2023-03-24T01:19:46;14.85;;;11.40;;
10945;SDS011;5525;42.648;23.368;2023-03-24T01:22:13;17.83;;;12.15;;
10945;SDS011;5525;42.648;23.368;2023-03-24T01:24:40;16.23;;;11.82;;
10945;SDS011;5525;42.648;23.368;2023-03-24T01:27:08;16.20;;;11.70;;
10945;SDS011;5525;42.648;23.368;2023-03-24T01:29:35;17.50;;;12.50;;
10945;SDS011;5525;42.648;23.368;2023-03-24T01:32:03;16.13;;;11.98;;
10945;SDS011;5525;42.648;23.368;2023-03-24T01:34:30;17.73;;;12.55;;
10945;SDS011;5525;42.648;23.368;2023-03-24T01:36:57;18.48;;;12.82;;
10945;SDS011;5525;42.648;23.368;2023-03-24T01:39:24;20.80;;;12.95;;
10945;SDS011;5525;42.648;23.368;2023-03-24T01:41:51;18.02;;;12.82;;
10945;SDS011;5525;42.648;23.368;2023-03-24T01:44:25;18.35;;;12.57;;
10945;SDS011;5525;42.648;23.368;2023-03-24T01:46:53;19.83;;;12.93;;
10945;SDS011;5525;42.648;23.368;2023-03-24T01:49:23;19.77;;;12.95;;
10945;SDS011;5525;42.648;23.368;2023-03-24T01:51:53;16.42;;;12.35;;
10945;SDS011;5525;42.648;23.368;2023-03-24T01:54:25;18.02;;;12.55;;
10945;SDS011;5525;42.648;23.368;2023-03-24T01:56:56;17.52;;;12.18;;
10945;SDS011;5525;42.648;23.368;2023-03-24T01:59:26;14.27;;;11.45;;
10945;SDS011;5525;42.648;23.368;2023-03-24T02:01:57;18.63;;;11.85;;
10945;SDS011;5525;42.648;23.368;2023-03-24T02:04:29;18.83;;;13.25;;
10945;SDS011;5525;42.648;23.368;2023-03-24T02:06:58;18.58;;;12.38;;
10945;SDS011;5525;42.648;23.368;2023-03-24T02:09:33;17.60;;;12.90;;
10945;SDS011;5525;42.648;23.368;2023-03-24T02:12:00;20.65;;;12.70;;
10945;SDS011;5525;42.648;23.368;2023-03-24T02:14:27;16.40;;;12.50;;
10945;SDS011;5525;42.648;23.368;2023-03-24T02:17:02;20.60;;;12.50;;
10945;SDS011;5525;42.648;23.368;2023-03-24T02:22:47;20.58;;;12.98;;
10945;SDS011;5525;42.648;23.368;2023-03-24T02:26:01;19.40;;;13.15;;
10945;SDS011;5525;42.648;23.368;2023-03-24T02:28:53;17.15;;;12.20;;
10945;SDS011;5525;42.648;23.368;2023-03-24T02:34:38;15.95;;;12.23;;
10945;SDS011;5525;42.648;23.368;2023-03-24T02:37:26;19.52;;;12.65;;
10945;SDS011;5525;42.648;23.368;2023-03-24T02:40:18;19.13;;;13.88;;
10945;SDS011;5525;42.648;23.368;2023-03-24T02:42:55;19.33;;;14.30;;
10945;SDS011;5525;42.648;23.368;2023-03-24T02:45:31;21.25;;;14.07;;
10945;SDS011;5525;42.648;23.368;2023-03-24T02:48:07;20.80;;;14.38;;
10945;SDS011;5525;42.648;23.368;2023-03-24T02:50:47;20.58;;;14.38;;
10945;SDS011;5525;42.648;23.368;2023-03-24T02:53:18;18.65;;;13.00;;
10945;SDS011;5525;42.648;23.368;2023-03-24T02:55:53;20.08;;;13.30;;
10945;SDS011;5525;42.648;23.368;2023-03-24T02:58:22;18.98;;;13.88;;
10945;SDS011;5525;42.648;23.368;2023-03-24T03:00:58;18.48;;;13.95;;
10945;SDS011;5525;42.648;23.368;2023-03-24T03:03:31;21.02;;;13.80;;
10945;SDS011;5525;42.648;23.368;2023-03-24T03:06:03;18.15;;;12.15;;
10945;SDS011;5525;42.648;23.368;2023-03-24T03:08:36;17.17;;;11.70;;
10945;SDS011;5525;42.648;23.368;2023-03-24T03:11:07;23.10;;;13.00;;
10945;SDS011;5525;42.648;23.368;2023-03-24T03:13:40;16.05;;;11.50;;
10945;SDS011;5525;42.648;23.368;2023-03-24T03:16:13;17.38;;;12.18;;
10945;SDS011;5525;42.648;23.368;2023-03-24T03:18:44;16.27;;;11.75;;
10945;SDS011;5525;42.648;23.368;2023-03-24T03:21:16;18.65;;;13.23;;
10945;SDS011;5525;42.648;23.368;2023-03-24T03:23:47;21.77;;;12.95;;
10945;SDS011;5525;42.648;23.368;2023-03-24T03:26:18;21.73;;;13.02;;
10945;SDS011;5525;42.648;23.368;2023-03-24T03:28:49;19.05;;;12.63;;
10945;SDS011;5525;42.648;23.368;2023-03-24T03:31:22;18.73;;;12.68;;
10945;SDS011;5525;42.648;23.368;2023-03-24T03:33:57;17.88;;;12.70;;
10945;SDS011;5525;42.648;23.368;2023-03-24T03:36:30;17.30;;;12.10;;
10945;SDS011;5525;42.648;23.368;2023-03-24T03:39:04;14.10;;;9.85;;
10945;SDS011;5525;42.648;23.368;2023-03-24T03:41:39;13.05;;;10.82;;
10945;SDS011;5525;42.648;23.368;2023-03-24T03:44:07;13.00;;;9.32;;
10945;SDS011;5525;42.648;23.368;2023-03-24T03:46:34;12.50;;;9.18;;
10945;SDS011;5525;42.648;23.368;2023-03-24T03:49:02;10.65;;;8.63;;
10945;SDS011;5525;42.648;23.368;2023-03-24T03:51:29;10.93;;;7.75;;
10945;SDS011;5525;42.648;23.368;2023-03-24T03:53:58;10.35;;;7.13;;
10945;SDS011;5525;42.648;23.368;2023-03-24T03:56:28;9.10;;;6.75;;
10945;SDS011;5525;42.648;23.368;2023-03-24T03:58:58;9.30;;;7.15;;
10945;SDS011;5525;42.648;23.368;2023-03-24T04:01:26;12.48;;;7.22;;
10945;SDS011;5525;42.648;23.368;2023-03-24T04:04:09;8.35;;;7.10;;
10945;SDS011;5525;42.648;23.368;2023-03-24T04:06:54;9.25;;;7.35;;
10945;SDS011;5525;42.648;23.368;2023-03-24T04:09:35;32.15;;;24.65;;
10945;SDS011;5525;42.648;23.368;2023-03-24T04:12:24;24.08;;;18.00;;
10945;SDS011;5525;42.648;23.368;2023-03-24T04:15:11;19.90;;;14.63;;
10945;SDS011;5525;42.648;23.368;2023-03-24T04:21:02;10.98;;;8.45;;
10945;SDS011;5525;42.648;23.368;2023-03-24T04:23:39;9.93;;;8.38;;
10945;SDS011;5525;42.648;23.368;2023-03-24T04:26:14;11.48;;;8.63;;
10945;SDS011;5525;42.648;23.368;2023-03-24T04:28:53;11.27;;;8.73;;
10945;SDS011;5525;42.648;23.368;2023-03-24T04:31:30;10.10;;;8.13;;
10945;SDS011;5525;42.648;23.368;2023-03-24T04:34:02;11.95;;;8.55;;
10945;SDS011;5525;42.648;23.368;2023-03-24T04:36:37;12.15;;;8.57;;
10945;SDS011;5525;42.648;23.368;2023-03-24T04:39:09;12.07;;;8.57;;
10945;SDS011;5525;42.648;23.368;2023-03-24T04:41:40;11.57;;;8.68;;
10945;SDS011;5525;42.648;23.368;2023-03-24T04:44:08;9.77;;;8.48;;
10945;SDS011;5525;42.648;23.368;2023-03-24T04:46:38;10.45;;;8.85;;
10945;SDS011;5525;42.648;23.368;2023-03-24T04:49:05;13.68;;;8.82;;
10945;SDS011;5525;42.648;23.368;2023-03-24T04:51:32;11.93;;;8.50;;
10945;SDS011;5525;42.648;23.368;2023-03-24T04:53:58;10.98;;;8.35;;
10945;SDS011;5525;42.648;23.368;2023-03-24T04:56:29;10.70;;;8.43;;
10945;SDS011;5525;42.648;23.368;2023-03-24T04:59:03;13.05;;;8.82;;
10945;SDS011;5525;42.648;23.368;2023-03-24T05:01:31;9.45;;;7.95;;
10945;SDS011;5525;42.648;23.368;2023-03-24T05:04:03;11.77;;;8.45;;
10945;SDS011;5525;42.648;23.368;2023-03-24T05:06:29;11.63;;;8.20;;
10945;SDS011;5525;42.648;23.368;2023-03-24T05:08:57;10.88;;;8.20;;
10945;SDS011;5525;42.648;23.368;2023-03-24T05:11:24;11.63;;;8.48;;
10945;SDS011;5525;42.648;23.368;2023-03-24T05:13:51;10.43;;;8.27;;
10945;SDS011;5525;42.648;23.368;2023-03-24T05:16:17;12.88;;;9.13;;
10945;SDS011;5525;42.648;23.368;2023-03-24T05:18:44;15.50;;;9.65;;
10945;SDS011;5525;42.648;23.368;2023-03-24T05:21:12;13.50;;;9.32;;
10945;SDS011;5525;42.648;23.368;2023-03-24T05:23:39;14.30;;;9.90;;
10945;SDS011;5525;42.648;23.368;2023-03-24T05:26:06;13.75;;;9.57;;
10945;SDS011;5525;42.648;23.368;2023-03-24T05:28:33;14.18;;;9.90;;
10945;SDS011;5525;42.648;23.368;2023-03-24T05:30:59;15.02;;;10.48;;
10945;SDS011;5525;42.648;23.368;2023-03-24T05:33:26;19.50;;;10.75;;
10945;SDS011;5525;42.648;23.368;2023-03-24T05:35:53;19.48;;;9.70;;
10945;SDS011;5525;42.648;23.368;2023-03-24T05:38:21;15.40;;;9.82;;
10945;SDS011;5525;42.648;23.368;2023-03-24T05:40:48;18.13;;;11.15;;
10945;SDS011;5525;42.648;23.368;2023-03-24T05:43:14;20.48;;;10.68;;
10945;SDS011;5525;42.648;23.368;2023-03-24T05:45:42;18.52;;;10.63;;
10945;SDS011;5525;42.648;23.368;2023-03-24T05:48:08;25.15;;;11.38;;
10945;SDS011;5525;42.648;23.368;2023-03-24T05:50:35;13.80;;;9.63;;
10945;SDS011;5525;42.648;23.368;2023-03-24T05:53:02;20.35;;;10.57;;
10945;SDS011;5525;42.648;23.368;2023-03-24T05:55:30;29.40;;;12.15;;
10945;SDS011;5525;42.648;23.368;2023-03-24T05:57:56;25.75;;;10.45;;
10945;SDS011;5525;42.648;23.368;2023-03-24T06:00:26;28.58;;;12.13;;
10945;SDS011;5525;42.648;23.368;2023-03-24T06:02:53;18.75;;;11.30;;
10945;SDS011;5525;42.648;23.368;2023-03-24T06:05:20;22.77;;;11.63;;
10945;SDS011;5525;42.648;23.368;2023-03-24T06:07:47;20.00;;;11.13;;
10945;SDS011;5525;42.648;23.368;2023-03-24T06:10:14;26.30;;;12.15;;
10945;SDS011;5525;42.648;23.368;2023-03-24T06:12:44;25.50;;;12.77;;
10945;SDS011;5525;42.648;23.368;2023-03-24T06:15:11;32.63;;;16.85;;
10945;SDS011;5525;42.648;23.368;2023-03-24T06:17:41;28.88;;;17.52;;
10945;SDS011;5525;42.648;23.368;2023-03-24T06:20:09;29.67;;;17.83;;
10945;SDS011;5525;42.648;23.368;2023-03-24T06:22:40;27.00;;;19.25;;
10945;SDS011;5525;42.648;23.368;2023-03-24T06:25:08;28.27;;;18.73;;
10945;SDS011;5525;42.648;23.368;2023-03-24T06:27:35;25.23;;;17.58;;
10945;SDS011;5525;42.648;23.368;2023-03-24T06:30:05;23.73;;;17.98;;
10945;SDS011;5525;42.648;23.368;2023-03-24T06:32:32;27.90;;;19.10;;
10945;SDS011;5525;42.648;23.368;2023-03-24T06:34:59;25.40;;;17.38;;
10945;SDS011;5525;42.648;23.368;2023-03-24T06:37:26;27.73;;;17.35;;
10945;SDS011;5525;42.648;23.368;2023-03-24T06:39:53;29.30;;;19.05;;
10945;SDS011;5525;42.648;23.368;2023-03-24T06:42:19;29.10;;;17.95;;
10945;SDS011;5525;42.648;23.368;2023-03-24T06:44:46;25.70;;;17.73;;
10945;SDS011;5525;42.648;23.368;2023-03-24T06:47:14;32.10;;;18.45;;
10945;SDS011;5525;42.648;23.368;2023-03-24T06:49:41;28.98;;;18.15;;
10945;SDS011;5525;42.648;23.368;2023-03-24T06:52:08;29.98;;;17.08;;
10945;SDS011;5525;42.648;23.368;2023-03-24T06:54:34;22.42;;;17.08;;
10945;SDS011;5525;42.648;23.368;2023-03-24T06:57:01;27.90;;;16.38;;
10945;SDS011;5525;42.648;23.368;2023-03-24T06:59:28;27.73;;;16.50;;
10945;SDS011;5525;42.648;23.368;2023-03-24T07:01:55;23.55;;;17.60;;
10945;SDS011;5525;42.648;23.368;2023-03-24T07:04:23;30.10;;;18.00;;
10945;SDS011;5525;42.648;23.368;2023-03-24T07:06:51;23.55;;;17.17;;
10945;SDS011;5525;42.648;23.368;2023-03-24T07:09:18;21.17;;;17.52;;
10945;SDS011;5525;42.648;23.368;2023-03-24T07:11:45;20.92;;;17.25;;
10945;SDS011;5525;42.648;23.368;2023-03-24T07:14:12;23.42;;;17.73;;
10945;SDS011;5525;42.648;23.368;2023-03-24T07:16:38;27.33;;;18.77;;
10945;SDS011;5525;42.648;23.368;2023-03-24T07:19:05;29.05;;;19.85;;
10945;SDS011;5525;42.648;23.368;2023-03-24T07:21:33;21.80;;;17.48;;
10945;SDS011;5525;42.648;23.368;2023-03-24T07:24:00;24.25;;;17.67;;
10945;SDS011;5525;42.648;23.368;2023-03-24T07:26:27;23.63;;;16.80;;
10945;SDS011;5525;42.648;23.368;2023-03-24T07:28:53;20.42;;;18.23;;
10945;SDS011;5525;42.648;23.368;2023-03-24T07:31:21;18.80;;;16.80;;
10945;SDS011;5525;42.648;23.368;2023-03-24T07:33:48;19.98;;;16.88;;
10945;SDS011;5525;42.648;23.368;2023-03-24T07:36:15;19.88;;;16.42;;
10945;SDS011;5525;42.648;23.368;2023-03-24T07:38:43;24.75;;;17.20;;
10945;SDS011;5525;42.648;23.368;2023-03-24T07:41:10;18.77;;;15.63;;
10945;SDS011;5525;42.648;23.368;2023-03-24T07:43:36;21.27;;;15.85;;
10945;SDS011;5525;42.648;23.368;2023-03-24T07:46:03;17.55;;;15.75;;
10945;SDS011;5525;42.648;23.368;2023-03-24T07:48:30;19.27;;;15.13;;
10945;SDS011;5525;42.648;23.368;2023-03-24T07:50:56;19.65;;;15.73;;
10945;SDS011;5525;42.648;23.368;2023-03-24T07:53:23;22.55;;;16.30;;
10945;SDS011;5525;42.648;23.368;2023-03-24T07:55:51;19.77;;;15.02;;
10945;SDS011;5525;42.648;23.368;2023-03-24T07:58:18;17.58;;;14.43;;
10945;SDS011;5525;42.648;23.368;2023-03-24T08:00:45;20.48;;;14.85;;
10945;SDS011;5525;42.648;23.368;2023-03-24T08:03:12;17.52;;;15.25;;
10945;SDS011;5525;42.648;23.368;2023-03-24T08:05:39;17.48;;;15.63;;
10945;SDS011;5525;42.648;23.368;2023-03-24T08:08:07;19.45;;;15.85;;
10945;SDS011;5525;42.648;23.368;2023-03-24T08:10:35;25.35;;;15.80;;
10945;SDS011;5525;42.648;23.368;2023-03-24T08:13:03;19.30;;;14.77;;
10945;SDS011;5525;42.648;23.368;2023-03-24T08:15:29;28.48;;;16.42;;
10945;SDS011;5525;42.648;23.368;2023-03-24T08:17:56;15.55;;;12.75;;
10945;SDS011;5525;42.648;23.368;2023-03-24T08:20:23;17.23;;;12.43;;
10945;SDS011;5525;42.648;23.368;2023-03-24T08:22:53;18.85;;;11.43;;
10945;SDS011;5525;42.648;23.368;2023-03-24T08:25:21;19.98;;;15.07;;
10945;SDS011;5525;42.648;23.368;2023-03-24T08:27:49;19.67;;;14.18;;
10945;SDS011;5525;42.648;23.368;2023-03-24T08:30:18;23.05;;;16.90;;
10945;SDS011;5525;42.648;23.368;2023-03-24T08:32:47;20.63;;;15.60;;
10945;SDS011;5525;42.648;23.368;2023-03-24T08:35:17;22.00;;;16.25;;
10945;SDS011;5525;42.648;23.368;2023-03-24T08:37:46;19.38;;;14.38;;
10945;SDS011;5525;42.648;23.368;2023-03-24T08:40:14;19.40;;;15.25;;
10945;SDS011;5525;42.648;23.368;2023-03-24T08:42:43;16.27;;;14.43;;
10945;SDS011;5525;42.648;23.368;2023-03-24T08:45:12;18.95;;;14.50;;
10945;SDS011;5525;42.648;23.368;2023-03-24T08:47:41;15.60;;;13.80;;
10945;SDS011;5525;42.648;23.368;2023-03-24T08:50:08;14.32;;;12.50;;
10945;SDS011;5525;42.648;23.368;2023-03-24T08:52:35;16.45;;;14.02;;
10945;SDS011;5525;42.648;23.368;2023-03-24T08:55:02;19.58;;;15.27;;
10945;SDS011;5525;42.648;23.368;2023-03-24T08:57:30;17.05;;;13.68;;
10945;SDS011;5525;42.648;23.368;2023-03-24T08:59:57;15.25;;;13.65;;
10945;SDS011;5525;42.648;23.368;2023-03-24T09:02:23;14.90;;;13.13;;
10945;SDS011;5525;42.648;23.368;2023-03-24T09:04:51;16.33;;;14.15;;
10945;SDS011;5525;42.648;23.368;2023-03-24T09:07:20;18.88;;;13.68;;
10945;SDS011;5525;42.648;23.368;2023-03-24T09:09:47;18.25;;;13.77;;
10945;SDS011;5525;42.648;23.368;2023-03-24T09:12:14;15.52;;;13.95;;
10945;SDS011;5525;42.648;23.368;2023-03-24T09:14:45;14.88;;;12.60;;
10945;SDS011;5525;42.648;23.368;2023-03-24T09:17:13;14.48;;;12.82;;
10945;SDS011;5525;42.648;23.368;2023-03-24T09:19:40;21.08;;;13.60;;
10945;SDS011;5525;42.648;23.368;2023-03-24T09:22:08;18.38;;;13.20;;
10945;SDS011;5525;42.648;23.368;2023-03-24T09:24:35;16.08;;;13.23;;
10945;SDS011;5525;42.648;23.368;2023-03-24T09:27:01;15.55;;;14.00;;
10945;SDS011;5525;42.648;23.368;2023-03-24T09:29:28;14.68;;;12.93;;
10945;SDS011;5525;42.648;23.368;2023-03-24T09:31:55;17.20;;;13.77;;
10945;SDS011;5525;42.648;23.368;2023-03-24T09:34:22;75.32;;;16.23;;
10945;SDS011;5525;42.648;23.368;2023-03-24T09:36:49;15.23;;;13.60;;
10945;SDS011;5525;42.648;23.368;2023-03-24T09:39:17;28.98;;;13.55;;
10945;SDS011;5525;42.648;23.368;2023-03-24T09:41:44;15.38;;;12.02;;
10945;SDS011;5525;42.648;23.368;2023-03-24T09:44:15;14.05;;;12.00;;
10945;SDS011;5525;42.648;23.368;2023-03-24T09:46:49;15.82;;;11.32;;
10945;SDS011;5525;42.648;23.368;2023-03-24T09:49:21;14.23;;;11.73;;
10945;SDS011;5525;42.648;23.368;2023-03-24T09:51:50;15.13;;;11.85;;
10945;SDS011;5525;42.648;23.368;2023-03-24T09:54:25;17.65;;;12.00;;
10945;SDS011;5525;42.648;23.368;2023-03-24T09:56:56;13.23;;;11.93;;
10945;SDS011;5525;42.648;23.368;2023-03-24T09:59:28;13.15;;;11.85;;
10945;SDS011;5525;42.648;23.368;2023-03-24T10:01:59;15.90;;;11.32;;
10945;SDS011;5525;42.648;23.368;2023-03-24T10:04:27;12.85;;;11.52;;
10945;SDS011;5525;42.648;23.368;2023-03-24T10:06:58;15.32;;;10.98;;
10945;SDS011;5525;42.648;23.368;2023-03-24T10:09:33;11.65;;;10.45;;
10945;SDS011;5525;42.648;23.368;2023-03-24T10:12:13;13.70;;;10.40;;
10945;SDS011;5525;42.648;23.368;2023-03-24T10:14:52;11.32;;;10.18;;
10945;SDS011;5525;42.648;23.368;2023-03-24T10:17:32;11.75;;;10.13;;
10945;SDS011;5525;42.648;23.368;2023-03-24T10:20:09;13.70;;;10.20;;
10945;SDS011;5525;42.648;23.368;2023-03-24T10:22:45;13.82;;;9.90;;
10945;SDS011;5525;42.648;23.368;2023-03-24T10:25:22;14.80;;;10.43;;
10945;SDS011;5525;42.648;23.368;2023-03-24T10:27:53;20.90;;;10.13;;
10945;SDS011;5525;42.648;23.368;2023-03-24T10:30:25;13.32;;;9.77;;
10945;SDS011;5525;42.648;23.368;2023-03-24T10:32:55;12.18;;;9.90;;
10945;SDS011;5525;42.648;23.368;2023-03-24T10:35:23;13.20;;;9.45;;
10945;SDS011;5525;42.648;23.368;2023-03-24T10:37:54;14.63;;;9.70;;
10945;SDS011;5525;42.648;23.368;2023-03-24T10:40:26;11.27;;;9.25;;
10945;SDS011;5525;42.648;23.368;2023-03-24T10:42:55;11.45;;;10.15;;
10945;SDS011;5525;42.648;23.368;2023-03-24T10:45:24;12.00;;;9.45;;
10945;SDS011;5525;42.648;23.368;2023-03-24T10:47:53;10.02;;;9.02;;
10945;SDS011;5525;42.648;23.368;2023-03-24T10:50:24;27.00;;;9.75;;
10945;SDS011;5525;42.648;23.368;2023-03-24T10:52:52;10.15;;;8.35;;
10945;SDS011;5525;42.648;23.368;2023-03-24T10:55:21;9.57;;;8.57;;
10945;SDS011;5525;42.648;23.368;2023-03-24T10:57:57;10.15;;;8.85;;
10945;SDS011;5525;42.648;23.368;2023-03-24T11:00:25;11.93;;;9.25;;
10945;SDS011;5525;42.648;23.368;2023-03-24T11:02:56;12.48;;;9.65;;
10945;SDS011;5525;42.648;23.368;2023-03-24T11:05:26;15.45;;;9.38;;
10945;SDS011;5525;42.648;23.368;2023-03-24T11:07:56;15.27;;;9.38;;
10945;SDS011;5525;42.648;23.368;2023-03-24T11:10:35;14.38;;;11.70;;
10945;SDS011;5525;42.648;23.368;2023-03-24T11:13:04;12.73;;;9.93;;
10945;SDS011;5525;42.648;23.368;2023-03-24T11:15:41;12.15;;;9.40;;
10945;SDS011;5525;42.648;23.368;2023-03-24T11:18:19;10.90;;;9.38;;
10945;SDS011;5525;42.648;23.368;2023-03-24T11:20:56;10.32;;;9.32;;
10945;SDS011;5525;42.648;23.368;2023-03-24T11:23:25;12.35;;;8.98;;
10945;SDS011;5525;42.648;23.368;2023-03-24T11:26:01;11.18;;;9.95;;
10945;SDS011;5525;42.648;23.368;2023-03-24T11:28:35;16.38;;;8.88;;
10945;SDS011;5525;42.648;23.368;2023-03-24T11:31:05;9.98;;;8.60;;
10945;SDS011;5525;42.648;23.368;2023-03-24T11:33:34;17.95;;;8.77;;
10945;SDS011;5525;42.648;23.368;2023-03-24T11:39:09;9.10;;;8.00;;
10945;SDS011;5525;42.648;23.368;2023-03-24T11:41:40;9.45;;;7.78;;
10945;SDS011;5525;42.648;23.368;2023-03-24T11:44:19;9.45;;;7.20;;
10945;SDS011;5525;42.648;23.368;2023-03-24T11:46:49;16.23;;;8.27;;
10945;SDS011;5525;42.648;23.368;2023-03-24T11:49:19;16.27;;;9.23;;
10945;SDS011;5525;42.648;23.368;2023-03-24T11:51:50;10.30;;;7.10;;
10945;SDS011;5525;42.648;23.368;2023-03-24T11:54:20;14.15;;;8.50;;
10945;SDS011;5525;42.648;23.368;2023-03-24T11:56:51;9.43;;;7.25;;
10945;SDS011;5525;42.648;23.368;2023-03-24T11:59:26;9.35;;;7.38;;
10945;SDS011;5525;42.648;23.368;2023-03-24T12:01:59;9.35;;;7.18;;
10945;SDS011;5525;42.648;23.368;2023-03-24T12:04:34;16.48;;;7.28;;
10945;SDS011;5525;42.648;23.368;2023-03-24T12:07:26;11.38;;;6.63;;
10945;SDS011;5525;42.648;23.368;2023-03-24T12:10:22;14.10;;;7.13;;
10945;SDS011;5525;42.648;23.368;2023-03-24T12:13:03;10.75;;;6.63;;
10945;SDS011;5525;42.648;23.368;2023-03-24T12:15:38;9.40;;;6.45;;
10945;SDS011;5525;42.648;23.368;2023-03-24T12:18:35;9.82;;;6.60;;
10945;SDS011;5525;42.648;23.368;2023-03-24T12:21:15;7.78;;;6.38;;
10945;SDS011;5525;42.648;23.368;2023-03-24T12:23:51;7.47;;;6.10;;
10945;SDS011;5525;42.648;23.368;2023-03-24T12:26:22;8.13;;;6.25;;
10945;SDS011;5525;42.648;23.368;2023-03-24T12:32:09;6.68;;;5.72;;
10945;SDS011;5525;42.648;23.368;2023-03-24T12:37:51;16.85;;;6.75;;
10945;SDS011;5525;42.648;23.368;2023-03-24T12:40:36;7.75;;;6.15;;
10945;SDS011;5525;42.648;23.368;2023-03-24T12:43:16;6.70;;;5.75;;
10945;SDS011;5525;42.648;23.368;2023-03-24T12:45:53;10.30;;;5.80;;
10945;SDS011;5525;42.648;23.368;2023-03-24T12:48:31;9.15;;;5.82;;
10945;SDS011;5525;42.648;23.368;2023-03-24T12:51:11;6.65;;;5.28;;
10945;SDS011;5525;42.648;23.368;2023-03-24T12:53:51;11.60;;;5.63;;
10945;SDS011;5525;42.648;23.368;2023-03-24T12:56:29;7.57;;;5.28;;
10945;SDS011;5525;42.648;23.368;2023-03-24T12:59:01;5.93;;;5.20;;
10945;SDS011;5525;42.648;23.368;2023-03-24T13:01:31;6.20;;;5.57;;
10945;SDS011;5525;42.648;23.368;2023-03-24T13:04:05;7.53;;;5.18;;
10945;SDS011;5525;42.648;23.368;2023-03-24T13:06:37;7.57;;;5.60;;
10945;SDS011;5525;42.648;23.368;2023-03-24T13:09:12;6.43;;;5.28;;
10945;SDS011;5525;42.648;23.368;2023-03-24T13:11:46;7.53;;;5.25;;
10945;SDS011;5525;42.648;23.368;2023-03-24T13:14:20;10.38;;;5.15;;
10945;SDS011;5525;42.648;23.368;2023-03-24T13:16:51;5.15;;;4.65;;
10945;SDS011;5525;42.648;23.368;2023-03-24T13:19:27;13.88;;;4.55;;
10945;SDS011;5525;42.648;23.368;2023-03-24T13:21:54;6.03;;;4.70;;
10945;SDS011;5525;42.648;23.368;2023-03-24T13:24:22;5.07;;;4.57;;
10945;SDS011;5525;42.648;23.368;2023-03-24T13:26:53;7.22;;;5.07;;
10945;SDS011;5525;42.648;23.368;2023-03-24T13:29:43;6.78;;;4.85;;
10945;SDS011;5525;42.648;23.368;2023-03-24T13:32:20;8.05;;;5.00;;
10945;SDS011;5525;42.648;23.368;2023-03-24T13:34:56;6.22;;;4.65;;
10945;SDS011;5525;42.648;23.368;2023-03-24T13:37:27;5.00;;;3.92;;
10945;SDS011;5525;42.648;23.368;2023-03-24T13:39:58;6.22;;;4.05;;
10945;SDS011;5525;42.648;23.368;2023-03-24T13:42:31;5.82;;;5.15;;
10945;SDS011;5525;42.648;23.368;2023-03-24T13:45:02;5.82;;;4.50;;
10945;SDS011;5525;42.648;23.368;2023-03-24T13:47:45;4.65;;;4.22;;
10945;SDS011;5525;42.648;23.368;2023-03-24T13:50:15;5.22;;;4.03;;
10945;SDS011;5525;42.648;23.368;2023-03-24T13:52:43;9.93;;;4.30;;
10945;SDS011;5525;42.648;23.368;2023-03-24T13:55:13;6.68;;;4.53;;
10945;SDS011;5525;42.648;23.368;2023-03-24T13:57:50;7.43;;;4.95;;
10945;SDS011;5525;42.648;23.368;2023-03-24T14:00:22;10.40;;;4.22;;
10945;SDS011;5525;42.648;23.368;2023-03-24T14:02:49;8.68;;;4.20;;
10945;SDS011;5525;42.648;23.368;2023-03-24T14:08:39;7.70;;;4.32;;
10945;SDS011;5525;42.648;23.368;2023-03-24T14:11:09;6.82;;;4.30;;
10945;SDS011;5525;42.648;23.368;2023-03-24T14:14:15;6.38;;;4.30;;
10945;SDS011;5525;42.648;23.368;2023-03-24T14:16:48;6.65;;;4.07;;
10945;SDS011;5525;42.648;23.368;2023-03-24T14:19:24;8.68;;;4.53;;
10945;SDS011;5525;42.648;23.368;2023-03-24T14:21:57;5.60;;;3.67;;
10945;SDS011;5525;42.648;23.368;2023-03-24T14:24:34;4.82;;;4.18;;
10945;SDS011;5525;42.648;23.368;2023-03-24T14:29:58;4.80;;;3.42;;
10945;SDS011;5525;42.648;23.368;2023-03-24T14:32:27;4.55;;;3.10;;
10945;SDS011;5525;42.648;23.368;2023-03-24T14:34:55;13.50;;;4.03;;
10945;SDS011;5525;42.648;23.368;2023-03-24T14:37:26;3.97;;;3.10;;
10945;SDS011;5525;42.648;23.368;2023-03-24T14:39:54;5.93;;;3.78;;
10945;SDS011;5525;42.648;23.368;2023-03-24T14:45:39;7.38;;;3.97;;
10945;SDS011;5525;42.648;23.368;2023-03-24T14:48:16;6.00;;;2.97;;
10945;SDS011;5525;42.648;23.368;2023-03-24T14:50:51;3.28;;;2.92;;
10945;SDS011;5525;42.648;23.368;2023-03-24T14:53:20;5.70;;;3.15;;
10945;SDS011;5525;42.648;23.368;2023-03-24T14:55:48;6.82;;;3.10;;
10945;SDS011;5525;42.648;23.368;2023-03-24T14:58:18;10.10;;;4.20;;
10945;SDS011;5525;42.648;23.368;2023-03-24T15:00:49;6.82;;;3.05;;
10945;SDS011;5525;42.648;23.368;2023-03-24T15:03:21;4.35;;;2.65;;
10945;SDS011;5525;42.648;23.368;2023-03-24T15:06:02;6.97;;;2.90;;
10945;SDS011;5525;42.648;23.368;2023-03-24T15:08:38;3.38;;;2.40;;
10945;SDS011;5525;42.648;23.368;2023-03-24T15:11:09;7.70;;;3.00;;
10945;SDS011;5525;42.648;23.368;2023-03-24T15:13:37;4.93;;;3.03;;
10945;SDS011;5525;42.648;23.368;2023-03-24T15:16:06;5.20;;;3.63;;
10945;SDS011;5525;42.648;23.368;2023-03-24T15:18:44;8.20;;;3.58;;